Time;durP1;ratioP1;P1;durP2;ratioP2;P2;SDS_P1;SDS_P2;PMS_P1;PMS_P2;Temp;Humidity;BMP_temperature;BMP_pressure;BME280_temperature;BME280_humidity;BME280_pressure;Samples;Min_cycle;Max_cycle;Signal;HPM_P1;HPM_P2
2023/02/03 00:00:40;;;;;;;12.02;5.90;;;19.80;68.80;;;;;;5047168;28;20290;-80
2023/02/03 00:03:07;;;;;;;12.50;5.50;;;19.80;68.80;;;;;;5038745;28;20203;-78
2023/02/03 00:05:35;;;;;;;12.00;5.40;;;19.80;68.90;;;;;;5042095;28;20199;-78
2023/02/03 00:08:03;;;;;;;11.90;5.95;;;19.70;68.70;;;;;;5041490;28;20682;-78
2023/02/03 00:10:30;;;;;;;10.35;4.82;;;19.70;68.70;;;;;;5040094;28;20221;-78
2023/02/03 00:12:57;;;;;;;7.22;4.20;;;19.70;68.70;;;;;;5040162;28;20199;-78
2023/02/03 00:15:24;;;;;;;9.02;4.68;;;19.70;68.80;;;;;;5039120;28;20733;-78
2023/02/03 00:17:52;;;;;;;9.70;5.65;;;19.70;68.80;;;;;;5041366;28;20270;-78
2023/02/03 00:20:19;;;;;;;12.63;5.10;;;19.70;68.80;;;;;;5039321;28;20677;-78
2023/02/03 00:22:45;;;;;;;8.90;4.70;;;19.70;68.80;;;;;;5041136;28;20674;-78
2023/02/03 00:25:12;;;;;;;13.93;5.22;;;19.70;68.80;;;;;;5040965;28;20210;-79
2023/02/03 00:27:39;;;;;;;8.20;4.63;;;19.70;68.80;;;;;;5039492;28;20203;-78
2023/02/03 00:30:06;;;;;;;7.30;4.97;;;19.70;68.80;;;;;;5040180;28;20207;-80
2023/02/03 00:32:33;;;;;;;11.68;6.78;;;19.70;68.90;;;;;;5038095;28;20682;-77
2023/02/03 00:35:01;;;;;;;9.68;5.10;;;19.70;68.80;;;;;;5042798;28;20222;-78
2023/02/03 00:37:28;;;;;;;8.05;4.40;;;19.70;68.90;;;;;;5040883;28;20223;-79
2023/02/03 00:39:55;;;;;;;7.03;4.57;;;19.60;68.70;;;;;;5039513;28;20207;-78
2023/02/03 00:42:21;;;;;;;7.03;4.45;;;19.60;68.70;;;;;;5039467;28;20202;-78
2023/02/03 00:44:48;;;;;;;10.05;4.50;;;19.60;68.70;;;;;;5039370;28;20661;-78
2023/02/03 00:47:15;;;;;;;9.52;4.80;;;19.60;68.70;;;;;;5039564;28;20196;-78
2023/02/03 00:49:42;;;;;;;7.43;4.30;;;19.60;68.70;;;;;;5039762;28;20195;-78
2023/02/03 00:52:10;;;;;;;8.07;4.30;;;19.60;68.80;;;;;;5041865;28;20256;-78
2023/02/03 00:54:36;;;;;;;8.98;4.80;;;19.60;68.80;;;;;;5039740;28;20204;-78
2023/02/03 00:57:03;;;;;;;7.78;5.07;;;19.60;68.80;;;;;;5040290;28;20225;-78
2023/02/03 00:59:30;;;;;;;7.50;4.05;;;19.60;68.80;;;;;;5039751;28;20684;-77
2023/02/03 01:01:57;;;;;;;7.40;4.80;;;19.60;68.80;;;;;;5038323;28;20203;-77
2023/02/03 01:04:23;;;;;;;8.25;4.07;;;19.50;68.70;;;;;;5040386;28;20201;-78
2023/02/03 01:06:50;;;;;;;9.02;5.35;;;19.50;68.70;;;;;;5041299;28;20667;-78
2023/02/03 01:09:18;;;;;;;6.72;4.50;;;19.50;68.70;;;;;;5039702;28;20196;-77
2023/02/03 01:11:45;;;;;;;6.05;3.85;;;19.50;68.70;;;;;;5039807;28;20211;-79
2023/02/03 01:14:11;;;;;;;5.30;4.07;;;19.50;68.70;;;;;;5039380;28;20200;-79
2023/02/03 01:16:38;;;;;;;8.63;4.40;;;19.50;68.70;;;;;;5038358;28;20281;-81
2023/02/03 01:19:05;;;;;;;9.13;5.25;;;19.50;68.70;;;;;;5038733;28;20196;-78
2023/02/03 01:21:32;;;;;;;7.40;4.63;;;19.50;68.70;;;;;;5037283;28;20204;-79
2023/02/03 01:23:59;;;;;;;6.65;3.97;;;19.50;68.80;;;;;;5040163;28;20200;-78
2023/02/03 01:26:28;;;;;;;7.10;4.32;;;19.50;68.70;;;;;;5039081;28;20188;-77
2023/02/03 01:28:57;;;;;;;6.90;4.25;;;19.50;68.70;;;;;;5037931;28;20725;-79
2023/02/03 01:31:26;;;;;;;6.30;4.15;;;19.50;68.80;;;;;;5039289;28;20654;-78
2023/02/03 01:33:54;;;;;;;9.07;4.20;;;19.50;68.80;;;;;;5039507;28;20215;-78
2023/02/03 01:36:22;;;;;;;7.85;4.05;;;19.50;68.80;;;;;;5038625;28;20229;-78
2023/02/03 01:38:50;;;;;;;6.57;4.13;;;19.50;68.80;;;;;;5037695;28;20215;-79
2023/02/03 01:41:19;;;;;;;6.05;3.97;;;19.50;68.70;;;;;;5039264;28;20558;-79
2023/02/03 01:43:49;;;;;;;5.97;4.10;;;19.50;68.80;;;;;;5039703;28;20200;-78
2023/02/03 01:46:25;;;;;;;5.45;3.58;;;19.40;68.60;;;;;;5037569;28;20648;-79
2023/02/03 01:48:53;;;;;;;6.50;4.10;;;19.40;68.70;;;;;;5038751;28;20207;-80
2023/02/03 01:51:21;;;;;;;6.03;3.53;;;19.40;68.70;;;;;;5040654;28;20309;-78
2023/02/03 01:53:48;;;;;;;6.40;3.90;;;19.40;68.70;;;;;;5038378;28;20220;-80
2023/02/03 01:56:16;;;;;;;9.32;3.97;;;19.40;68.70;;;;;;5037799;28;20663;-79
2023/02/03 01:58:44;;;;;;;5.50;3.50;;;19.40;68.70;;;;;;5038401;28;20199;-79
2023/02/03 02:01:12;;;;;;;7.20;4.50;;;19.40;68.70;;;;;;5038521;28;20215;-78
2023/02/03 02:03:43;;;;;;;7.47;3.47;;;19.40;68.70;;;;;;5038728;28;20571;-78
2023/02/03 02:06:11;;;;;;;5.20;3.83;;;19.40;68.70;;;;;;5039393;28;20192;-79
2023/02/03 02:08:39;;;;;;;8.82;3.88;;;19.40;68.70;;;;;;5039627;28;20559;-79
2023/02/03 02:11:07;;;;;;;5.38;3.80;;;19.40;68.70;;;;;;5036429;28;20219;-80
2023/02/03 02:13:35;;;;;;;5.97;3.65;;;19.40;68.70;;;;;;5038426;28;20204;-80
2023/02/03 02:16:09;;;;;;;5.95;3.88;;;19.40;68.70;;;;;;5038312;28;20195;-79
2023/02/03 02:18:59;;;;;;;6.57;3.88;;;19.30;68.60;;;;;;5039763;28;20637;-80
2023/02/03 02:21:46;;;;;;;5.95;3.97;;;19.40;68.70;;;;;;5038299;28;20207;-78
2023/02/03 02:24:39;;;;;;;5.43;3.42;;;19.40;68.70;;;;;;5039956;28;20658;-79
2023/02/03 02:27:16;;;;;;;6.75;3.60;;;19.30;68.60;;;;;;5038241;28;20201;-79
2023/02/03 02:30:27;;;;;;;6.28;3.88;;;19.30;68.60;;;;;;5039000;28;20203;-78
2023/02/03 02:33:06;;;;;;;9.68;4.10;;;19.30;68.60;;;;;;4956881;28;20198;-80
2023/02/03 02:35:47;;;;;;;7.20;3.97;;;19.30;68.60;;;;;;5034313;28;20195;-77
2023/02/03 02:38:21;;;;;;;8.57;3.90;;;19.30;68.60;;;;;;5037986;28;20686;-79
2023/02/03 02:40:53;;;;;;;6.30;3.03;;;19.30;68.60;;;;;;5037732;28;20203;-79
2023/02/03 02:43:24;;;;;;;6.40;3.45;;;19.30;68.60;;;;;;5037283;28;20206;-79
2023/02/03 02:45:55;;;;;;;5.28;3.20;;;19.30;68.60;;;;;;5038516;28;20218;-79
2023/02/03 02:48:31;;;;;;;7.15;3.78;;;19.30;68.60;;;;;;5036831;28;20269;-79
2023/02/03 02:51:00;;;;;;;5.38;3.17;;;19.30;68.70;;;;;;5038049;28;20686;-80
2023/02/03 02:53:32;;;;;;;6.60;4.30;;;19.30;68.70;;;;;;5037395;28;20196;-79
2023/02/03 02:56:00;;;;;;;6.30;4.03;;;19.30;68.70;;;;;;5037796;28;20210;-78
2023/02/03 02:58:30;;;;;;;6.18;3.30;;;19.30;68.70;;;;;;5038680;28;20221;-79
2023/02/03 03:00:56;;;;;;;6.70;3.28;;;19.20;68.50;;;;;;5036241;28;20204;-79
2023/02/03 03:03:24;;;;;;;4.25;3.15;;;19.20;68.50;;;;;;5037725;28;20227;-79
2023/02/03 03:05:55;;;;;;;4.07;2.28;;;19.20;68.50;;;;;;5037330;28;20218;-80
2023/02/03 03:08:28;;;;;;;4.28;3.65;;;19.20;68.50;;;;;;5039061;28;20199;-78
2023/02/03 03:10:57;;;;;;;5.25;3.20;;;19.20;68.50;;;;;;5037843;28;20201;-79
2023/02/03 03:13:30;;;;;;;7.38;4.20;;;19.20;68.50;;;;;;5037800;28;20767;-79
2023/02/03 03:15:59;;;;;;;5.90;3.65;;;19.20;68.50;;;;;;5037196;28;20200;-80
2023/02/03 03:18:31;;;;;;;7.72;3.05;;;19.20;68.50;;;;;;5036849;28;20226;-79
2023/02/03 03:21:04;;;;;;;4.90;2.88;;;19.20;69.40;;;;;;5034853;28;20206;-79
2023/02/03 03:23:34;;;;;;;4.97;3.50;;;19.20;68.50;;;;;;5037658;28;20222;-78
2023/02/03 03:26:09;;;;;;;7.05;3.53;;;19.20;68.60;;;;;;5036209;28;20211;-79
2023/02/03 03:28:43;;;;;;;5.55;2.90;;;19.20;68.60;;;;;;5037354;28;20700;-79
2023/02/03 03:31:10;;;;;;;6.05;3.38;;;19.20;68.60;;;;;;5038206;28;20198;-79
2023/02/03 03:33:38;;;;;;;4.75;3.88;;;19.20;68.50;;;;;;5037997;28;20226;-79
2023/02/03 03:36:12;;;;;;;4.78;3.05;;;19.20;68.50;;;;;;5037663;28;20203;-79
2023/02/03 03:38:43;;;;;;;4.75;3.28;;;19.20;68.50;;;;;;5038477;28;20224;-80
2023/02/03 03:41:19;;;;;;;4.18;3.55;;;19.20;68.60;;;;;;5037101;28;21019;-80
2023/02/03 03:43:49;;;;;;;5.18;3.35;;;19.20;68.70;;;;;;5037070;28;20546;-80
2023/02/03 03:46:21;;;;;;;3.38;2.35;;;19.20;68.60;;;;;;5038374;28;20207;-80
2023/02/03 03:48:54;;;;;;;5.68;3.95;;;19.20;68.50;;;;;;5037324;28;20571;-79
2023/02/03 03:51:27;;;;;;;4.45;2.80;;;19.20;68.60;;;;;;5037929;28;20223;-80
2023/02/03 03:53:55;;;;;;;3.85;3.05;;;19.20;68.60;;;;;;5036219;28;20564;-80
2023/02/03 03:56:28;;;;;;;5.30;3.42;;;19.20;68.60;;;;;;5036174;28;20207;-80
2023/02/03 03:58:57;;;;;;;3.17;2.55;;;19.10;68.50;;;;;;5036379;28;20216;-80
2023/02/03 04:01:24;;;;;;;5.82;3.92;;;19.10;68.50;;;;;;5036979;28;20195;-80
2023/02/03 04:03:56;;;;;;;3.80;2.75;;;19.10;68.50;;;;;;5041367;28;20212;-81
2023/02/03 04:06:23;;;;;;;4.97;2.63;;;19.10;68.50;;;;;;5039549;28;20200;-80
2023/02/03 04:08:50;;;;;;;3.78;3.00;;;19.10;68.50;;;;;;5042006;28;20555;-79
2023/02/03 04:13:57;;;;;;;3.97;3.20;;;19.10;68.50;;;;;;5039185;28;20667;-80
2023/02/03 04:16:24;;;;;;;4.28;2.83;;;19.10;68.50;;;;;;5040646;28;20208;-80
2023/02/03 04:18:52;;;;;;;4.50;3.13;;;19.10;68.50;;;;;;5038929;28;20216;-79
2023/02/03 04:21:19;;;;;;;3.90;3.00;;;19.10;68.50;;;;;;5039809;28;20207;-79
2023/02/03 04:23:46;;;;;;;4.55;2.80;;;19.10;68.50;;;;;;5039846;28;20199;-80
2023/02/03 04:26:12;;;;;;;3.63;2.35;;;19.10;68.50;;;;;;5041705;28;20208;-79
2023/02/03 04:28:39;;;;;;;4.22;2.53;;;19.10;68.60;;;;;;5039460;28;20581;-79
2023/02/03 04:31:06;;;;;;;2.88;2.17;;;19.10;68.60;;;;;;5043603;28;20203;-80
2023/02/03 04:33:32;;;;;;;4.85;2.85;;;19.10;68.50;;;;;;5041153;28;20204;-79
2023/02/03 04:36:01;;;;;;;3.72;2.85;;;19.10;68.50;;;;;;5041653;28;20204;-80
2023/02/03 04:38:27;;;;;;;5.97;3.15;;;19.10;68.50;;;;;;5041227;28;20686;-80
2023/02/03 04:40:54;;;;;;;3.50;2.45;;;19.10;68.50;;;;;;5044538;28;20624;-80
2023/02/03 04:43:21;;;;;;;4.15;2.70;;;19.10;68.50;;;;;;5038522;28;20578;-80
2023/02/03 04:45:47;;;;;;;3.72;2.50;;;19.10;68.50;;;;;;5040644;28;20195;-78
2023/02/03 04:48:14;;;;;;;4.50;2.63;;;19.10;68.60;;;;;;5039909;28;20204;-79
2023/02/03 04:50:41;;;;;;;4.18;2.63;;;19.10;68.50;;;;;;5038677;28;20192;-79
2023/02/03 04:53:09;;;;;;;3.58;3.00;;;19.10;68.50;;;;;;5039427;28;20706;-79
2023/02/03 04:55:36;;;;;;;3.28;2.40;;;19.10;68.60;;;;;;5039611;28;20195;-79
2023/02/03 04:58:02;;;;;;;2.75;2.45;;;19.00;68.50;;;;;;5038873;28;20879;-79
2023/02/03 05:00:29;;;;;;;3.92;2.92;;;19.00;68.50;;;;;;5038107;28;20199;-79
2023/02/03 05:02:56;;;;;;;5.53;3.17;;;19.00;68.50;;;;;;5039412;28;20597;-79
2023/02/03 05:05:23;;;;;;;3.13;2.53;;;19.00;68.40;;;;;;5039109;28;20196;-77
2023/02/03 05:07:49;;;;;;;3.95;2.45;;;19.00;68.50;;;;;;5039269;28;20589;-79
2023/02/03 05:10:18;;;;;;;3.08;2.58;;;19.00;68.40;;;;;;5041022;28;20211;-78
2023/02/03 05:12:44;;;;;;;5.80;2.25;;;19.00;68.40;;;;;;5040424;28;20211;-79
2023/02/03 05:15:11;;;;;;;2.53;2.08;;;19.00;68.50;;;;;;5039428;28;20211;-79
2023/02/03 05:17:39;;;;;;;5.40;2.25;;;19.00;68.50;;;;;;5039310;28;20556;-79
2023/02/03 05:20:06;;;;;;;3.80;2.05;;;19.00;68.50;;;;;;5039405;28;20671;-79
2023/02/03 05:22:34;;;;;;;2.47;2.28;;;19.00;68.50;;;;;;5038200;28;20203;-80
2023/02/03 05:25:09;;;;;;;3.83;2.63;;;19.00;68.50;;;;;;5042264;28;20231;-81
2023/02/03 05:27:39;;;;;;;5.75;2.58;;;19.00;68.50;;;;;;5040051;28;20203;-77
2023/02/03 05:30:07;;;;;;;4.35;2.85;;;19.00;68.50;;;;;;5039079;28;20204;-79
2023/02/03 05:32:34;;;;;;;4.45;2.78;;;19.00;68.50;;;;;;5039657;28;20210;-80
2023/02/03 05:35:01;;;;;;;2.80;2.20;;;19.00;68.50;;;;;;5036850;28;20215;-78
2023/02/03 05:37:28;;;;;;;4.32;2.40;;;19.00;68.50;;;;;;5039656;28;20215;-80
2023/02/03 05:41:50;;;;;;;3.92;2.95;;;19.00;68.50;;;;;;5039096;28;20552;-79
2023/02/03 05:42:47;;;;;;;3.25;2.15;;;19.00;68.60;;;;;;5038567;28;20200;-80
2023/02/03 05:45:13;;;;;;;3.00;2.38;;;19.00;68.50;;;;;;5038775;28;20238;-79
2023/02/03 05:47:40;;;;;;;2.70;2.13;;;19.00;68.60;;;;;;5039700;28;20203;-80
2023/02/03 05:50:07;;;;;;;2.90;2.20;;;19.00;68.60;;;;;;5038693;28;20211;-80
2023/02/03 05:52:34;;;;;;;3.88;2.38;;;19.00;68.60;;;;;;5038974;28;20705;-80
2023/02/03 05:55:01;;;;;;;2.75;1.70;;;18.90;68.50;;;;;;5038750;28;20210;-80
2023/02/03 05:57:27;;;;;;;4.57;2.75;;;18.90;68.50;;;;;;5039637;28;20204;-78
2023/02/03 05:59:55;;;;;;;3.10;2.10;;;18.90;68.60;;;;;;5038967;28;20195;-80
2023/02/03 06:02:22;;;;;;;4.15;2.40;;;18.90;68.60;;;;;;5037406;28;20204;-80
2023/02/03 06:04:49;;;;;;;3.22;2.30;;;18.90;68.50;;;;;;5038114;28;20208;-78
2023/02/03 06:07:18;;;;;;;4.60;2.72;;;18.90;68.50;;;;;;5042107;28;20200;-81
2023/02/03 06:09:46;;;;;;;3.85;2.42;;;18.90;68.50;;;;;;5044541;28;20199;-79
2023/02/03 06:12:13;;;;;;;5.35;2.67;;;18.90;68.50;;;;;;5045829;28;20205;-78
2023/02/03 06:14:42;;;;;;;3.20;2.30;;;18.90;68.60;;;;;;5045197;28;20203;-79
2023/02/03 06:17:17;;;;;;;2.88;2.13;;;18.90;68.50;;;;;;5043831;28;20784;-80
2023/02/03 06:19:44;;;;;;;5.13;2.60;;;18.90;68.50;;;;;;5046565;28;20222;-78
2023/02/03 06:22:11;;;;;;;4.15;2.65;;;18.90;68.50;;;;;;5043288;28;20298;-79
2023/02/03 06:24:38;;;;;;;3.40;2.53;;;19.00;68.70;;;;;;5040264;28;20290;-78
2023/02/03 06:27:07;;;;;;;2.28;2.08;;;19.00;68.70;;;;;;5044759;28;20199;-79
2023/02/03 06:29:33;;;;;;;3.90;3.03;;;19.00;68.70;;;;;;5045250;28;20194;-79
2023/02/03 06:32:00;;;;;;;3.85;1.95;;;19.00;68.70;;;;;;5042594;28;20319;-79
2023/02/03 06:34:28;;;;;;;3.70;2.30;;;19.00;68.70;;;;;;5044076;28;20202;-78
2023/02/03 06:36:56;;;;;;;2.35;1.80;;;19.00;68.70;;;;;;5040667;28;20206;-80
2023/02/03 06:39:23;;;;;;;2.50;2.08;;;19.10;68.80;;;;;;5042593;28;20223;-79
2023/02/03 06:41:50;;;;;;;2.45;2.10;;;19.00;68.70;;;;;;5029296;28;20286;-79
2023/02/03 06:44:17;;;;;;;2.58;1.65;;;19.00;68.70;;;;;;5043560;28;20211;-79
2023/02/03 06:46:44;;;;;;;4.85;2.47;;;19.00;68.70;;;;;;5041763;28;20200;-79
2023/02/03 06:49:11;;;;;;;2.35;1.80;;;19.00;68.70;;;;;;5041849;28;21899;-79
2023/02/03 06:51:41;;;;;;;3.45;2.05;;;19.00;68.70;;;;;;5041887;28;20594;-80
2023/02/03 06:54:08;;;;;;;2.25;1.73;;;19.00;68.80;;;;;;5041146;28;20223;-79
2023/02/03 06:56:35;;;;;;;2.88;2.20;;;19.00;68.80;;;;;;5044009;28;20191;-80
2023/02/03 06:59:03;;;;;;;2.30;1.90;;;19.00;68.80;;;;;;5030350;28;20298;-79
2023/02/03 07:01:31;;;;;;;3.15;2.00;;;19.00;68.80;;;;;;5040854;28;20199;-79
2023/02/03 07:03:58;;;;;;;3.25;1.92;;;19.00;68.80;;;;;;5047009;28;20199;-79
2023/02/03 07:06:33;;;;;;;2.25;1.70;;;19.00;68.80;;;;;;5042920;28;20209;-79
2023/02/03 07:09:04;;;;;;;2.80;2.13;;;19.10;68.90;;;;;;5041080;28;20662;-80
2023/02/03 07:11:32;;;;;;;3.67;1.80;;;19.10;68.90;;;;;;5041071;28;20524;-79
2023/02/03 07:13:59;;;;;;;3.22;2.22;;;19.10;68.90;;;;;;5042743;28;20606;-79
2023/02/03 07:16:30;;;;;;;2.03;1.70;;;19.10;68.90;;;;;;5043957;28;20665;-79
2023/02/03 07:19:01;;;;;;;3.28;2.45;;;19.10;68.80;;;;;;5039927;28;20689;-79
2023/02/03 07:21:44;;;;;;;2.60;2.10;;;19.10;68.90;;;;;;5041657;28;20196;-79
2023/02/03 07:24:21;;;;;;;2.00;1.80;;;19.20;68.90;;;;;;5044028;28;20198;-80
2023/02/03 07:26:52;;;;;;;4.50;2.10;;;19.20;68.90;;;;;;5045456;28;20193;-79
2023/02/03 07:29:21;;;;;;;1.65;1.35;;;19.20;68.90;;;;;;5043089;28;20632;-79
2023/02/03 07:31:50;;;;;;;2.13;1.65;;;19.20;69.00;;;;;;5044558;28;20215;-79
2023/02/03 07:34:18;;;;;;;2.75;1.85;;;19.20;68.90;;;;;;5031226;28;20292;-79
2023/02/03 07:36:47;;;;;;;2.30;1.67;;;19.20;68.90;;;;;;5046419;28;20256;-79
2023/02/03 07:39:20;;;;;;;2.45;1.83;;;19.20;68.90;;;;;;5048278;28;20254;-79
2023/02/03 07:41:52;;;;;;;2.97;1.73;;;19.20;68.90;;;;;;5046921;28;20280;-79
2023/02/03 07:44:19;;;;;;;2.00;1.80;;;19.20;68.90;;;;;;5045355;28;20236;-79
2023/02/03 07:46:48;;;;;;;2.65;1.67;;;19.30;69.10;;;;;;5046448;28;21976;-79
2023/02/03 07:49:17;;;;;;;2.83;2.10;;;19.30;69.10;;;;;;5046549;28;20190;-80
2023/02/03 07:51:48;;;;;;;2.50;2.08;;;19.20;68.90;;;;;;5047489;28;20256;-79
2023/02/03 07:54:19;;;;;;;2.47;1.70;;;19.30;69.10;;;;;;5045229;28;20196;-79
2023/02/03 07:56:46;;;;;;;2.95;1.77;;;19.30;69.10;;;;;;5047647;28;20247;-80
2023/02/03 07:59:12;;;;;;;3.00;2.65;;;19.30;69.10;;;;;;5047269;28;20254;-79
2023/02/03 08:01:41;;;;;;;3.03;2.08;;;19.30;69.10;;;;;;5047107;28;20663;-79
2023/02/03 08:04:10;;;;;;;2.65;1.35;;;19.30;69.10;;;;;;5046936;28;20211;-79
2023/02/03 08:06:42;;;;;;;2.22;1.90;;;19.30;69.10;;;;;;5028591;28;20664;-79
2023/02/03 08:09:09;;;;;;;3.80;1.75;;;19.30;69.00;;;;;;5045826;28;20279;-79
2023/02/03 08:11:37;;;;;;;2.53;1.90;;;19.30;69.00;;;;;;5044968;28;20591;-80
2023/02/03 08:14:04;;;;;;;2.40;1.65;;;19.40;69.10;;;;;;5047214;28;20212;-81
2023/02/03 08:16:31;;;;;;;2.25;1.77;;;19.40;69.10;;;;;;5044433;28;20201;-80
2023/02/03 08:18:57;;;;;;;2.08;1.58;;;19.40;69.10;;;;;;5044125;28;20212;-80
2023/02/03 08:21:24;;;;;;;2.15;1.67;;;19.40;69.10;;;;;;5042622;28;20217;-81
2023/02/03 08:23:51;;;;;;;2.38;1.77;;;19.40;69.10;;;;;;5044111;28;20555;-80
2023/02/03 08:26:17;;;;;;;2.92;2.33;;;19.40;69.10;;;;;;5043166;28;20212;-80
2023/02/03 08:28:49;;;;;;;2.40;1.63;;;19.40;69.10;;;;;;5044583;28;20244;-80
2023/02/03 08:31:16;;;;;;;3.20;1.45;;;19.40;69.10;;;;;;5045479;28;20289;-84
2023/02/03 08:33:43;;;;;;;8.27;1.55;;;19.40;69.10;;;;;;5038094;28;20204;-81
2023/02/03 08:36:11;;;;;;;2.42;2.10;;;19.40;69.50;;;;;;5039645;28;20663;-78
2023/02/03 08:38:41;;;;;;;5.68;1.80;;;19.40;69.80;;;;;;5047381;28;20215;-83
2023/02/03 08:41:09;;;;;;;6.50;1.90;;;19.40;70.40;;;;;;5046848;28;20200;-84
2023/02/03 08:43:36;;;;;;;4.40;1.70;;;19.40;70.80;;;;;;5046380;28;20201;-82
2023/02/03 08:46:05;;;;;;;7.22;1.70;;;19.40;70.80;;;;;;5039655;28;20211;-81
2023/02/03 08:48:32;;;;;;;2.75;1.90;;;19.40;71.00;;;;;;5038164;28;20595;-80
2023/02/03 08:50:59;;;;;;;2.55;1.65;;;19.40;71.00;;;;;;5040369;28;20197;-80
2023/02/03 08:53:28;;;;;;;2.22;1.80;;;19.40;71.00;;;;;;5041429;28;20710;-90
2023/02/03 08:55:57;;;;;;;2.95;1.83;;;19.40;71.00;;;;;;5050747;28;20236;-81
2023/02/03 08:58:24;;;;;;;2.97;1.60;;;19.40;71.10;;;;;;5048319;28;20201;-82
2023/02/03 09:00:52;;;;;;;2.55;1.90;;;19.40;71.20;;;;;;5045351;28;20206;-80
2023/02/03 09:03:20;;;;;;;2.80;1.40;;;19.40;71.30;;;;;;5041865;28;20212;-81
2023/02/03 09:05:47;;;;;;;3.75;2.33;;;19.40;71.50;;;;;;5042300;28;20217;-81
2023/02/03 09:08:17;;;;;;;3.67;1.40;;;19.50;71.70;;;;;;5046093;28;20207;-81
2023/02/03 09:10:44;;;;;;;3.22;2.05;;;19.50;71.60;;;;;;5044379;28;20234;-81
2023/02/03 09:13:11;;;;;;;4.15;1.88;;;19.50;71.70;;;;;;5041250;28;20595;-80
2023/02/03 09:15:37;;;;;;;2.05;1.45;;;19.50;71.60;;;;;;5042858;28;20211;-80
2023/02/03 09:18:04;;;;;;;6.63;1.70;;;19.50;71.70;;;;;;5041742;28;20204;-81
2023/02/03 09:20:33;;;;;;;4.18;1.75;;;19.50;71.60;;;;;;5040973;28;20235;-80
2023/02/03 09:22:59;;;;;;;2.70;1.75;;;19.50;71.50;;;;;;5042818;28;20204;-80
2023/02/03 09:25:26;;;;;;;3.50;1.90;;;19.50;71.50;;;;;;5043464;28;20223;-80
2023/02/03 09:27:53;;;;;;;2.42;1.50;;;19.50;71.50;;;;;;5040782;28;20213;-81
2023/02/03 09:30:20;;;;;;;1.50;1.15;;;19.50;71.40;;;;;;5041500;28;20211;-81
2023/02/03 09:32:52;;;;;;;6.30;1.80;;;19.50;71.40;;;;;;5039571;28;20209;-80
2023/02/03 09:35:19;;;;;;;1.95;1.50;;;19.50;71.30;;;;;;5042613;28;20194;-81
2023/02/03 09:37:47;;;;;;;9.30;2.13;;;19.50;71.30;;;;;;5041105;28;20584;-81
2023/02/03 09:40:21;;;;;;;2.42;1.38;;;19.50;71.20;;;;;;5041288;28;20223;-80
2023/02/03 09:43:06;;;;;;;2.97;1.92;;;19.50;71.20;;;;;;5039980;28;22268;-81
2023/02/03 09:45:33;;;;;;;1.98;1.20;;;19.50;71.20;;;;;;5041491;28;20208;-80
2023/02/03 09:48:04;;;;;;;2.72;1.42;;;19.50;71.20;;;;;;5038634;28;20207;-81
2023/02/03 09:50:34;;;;;;;1.60;1.35;;;19.50;71.10;;;;;;5042949;28;20246;-81
2023/02/03 09:53:11;;;;;;;4.03;1.45;;;19.50;71.00;;;;;;5039360;28;20223;-80
2023/02/03 09:55:40;;;;;;;2.30;1.75;;;19.60;71.10;;;;;;5037717;28;20215;-81
2023/02/03 09:58:12;;;;;;;3.10;1.45;;;19.60;71.20;;;;;;5040363;28;20198;-81
2023/02/03 10:00:43;;;;;;;1.80;1.17;;;19.60;71.10;;;;;;5039876;28;20949;-81
2023/02/03 10:03:20;;;;;;;1.80;1.35;;;19.60;71.00;;;;;;5039757;28;20197;-81
2023/02/03 10:06:05;;;;;;;2.58;2.17;;;19.60;71.00;;;;;;5040161;28;20196;-81
2023/02/03 10:08:55;;;;;;;2.65;1.40;;;19.60;71.00;;;;;;5040169;28;20200;-80
2023/02/03 10:11:37;;;;;;;1.88;1.30;;;19.60;70.90;;;;;;5042083;28;20205;-81
2023/02/03 10:14:19;;;;;;;3.40;1.50;;;19.60;70.90;;;;;;5036942;28;20212;-80
2023/02/03 10:17:04;;;;;;;2.85;1.45;;;19.60;70.90;;;;;;5043820;28;20228;-80
2023/02/03 10:19:38;;;;;;;3.00;1.33;;;19.60;70.90;;;;;;5041684;28;20733;-80
2023/02/03 10:22:08;;;;;;;2.45;1.30;;;19.60;70.90;;;;;;5042107;28;20211;-80
2023/02/03 10:24:42;;;;;;;2.78;1.10;;;19.60;71.20;;;;;;5042827;28;20643;-81
2023/02/03 10:27:16;;;;;;;2.65;1.75;;;19.60;70.80;;;;;;5042392;28;20215;-80
2023/02/03 10:29:43;;;;;;;2.53;1.50;;;19.70;70.90;;;;;;5042489;28;20652;-80
2023/02/03 10:32:13;;;;;;;2.17;1.80;;;19.60;70.80;;;;;;5037199;28;20591;-86
2023/02/03 10:34:43;;;;;;;1.60;1.40;;;19.70;70.90;;;;;;5041229;28;20221;-86
2023/02/03 10:37:18;;;;;;;2.25;1.20;;;19.70;70.80;;;;;;5045767;28;20204;-85
2023/02/03 10:39:49;;;;;;;2.42;1.25;;;19.70;70.80;;;;;;5047561;28;20238;-84
2023/02/03 10:42:17;;;;;;;2.60;1.67;;;19.70;70.90;;;;;;5044604;28;20198;-84
2023/02/03 10:44:48;;;;;;;3.28;1.50;;;19.80;71.10;;;;;;5039428;28;20206;-86
2023/02/03 10:47:24;;;;;;;2.65;1.60;;;19.80;71.10;;;;;;5042000;28;20203;-85
2023/02/03 10:49:53;;;;;;;2.00;1.40;;;19.80;71.10;;;;;;5042818;28;20798;-81
2023/02/03 10:52:31;;;;;;;2.35;1.60;;;19.80;71.20;;;;;;5046103;28;20222;-82
2023/02/03 10:55:06;;;;;;;1.40;1.20;;;19.80;71.10;;;;;;5046512;28;20198;-84
2023/02/03 10:57:36;;;;;;;2.05;1.50;;;19.80;71.20;;;;;;5043465;28;20211;-85
2023/02/03 11:00:08;;;;;;;3.00;1.20;;;19.80;71.20;;;;;;5047299;28;20230;-85
2023/02/03 11:02:35;;;;;;;1.40;1.10;;;19.80;71.40;;;;;;5048064;28;20250;-84
2023/02/03 11:05:29;;;;;;;2.75;1.65;;;19.90;71.60;;;;;;5048984;28;20211;-84
2023/02/03 11:07:56;;;;;;;4.70;1.33;;;19.90;71.60;;;;;;5000197;28;20220;-84
2023/02/03 11:10:33;;;;;;;2.22;1.30;;;19.90;71.60;;;;;;5044453;28;20204;-82
2023/02/03 11:13:17;;;;;;;3.10;1.38;;;19.90;71.70;;;;;;5048817;28;20200;-82
2023/02/03 11:15:50;;;;;;;1.40;1.20;;;20.00;71.70;;;;;;5051315;28;20293;-82
2023/02/03 11:18:39;;;;;;;1.80;1.20;;;20.00;71.80;;;;;;5048737;28;20197;-82
2023/02/03 11:21:12;;;;;;;2.42;1.17;;;20.00;71.90;;;;;;5015049;28;20240;-83
2023/02/03 11:23:47;;;;;;;6.32;2.33;;;20.00;71.90;;;;;;5046599;28;20808;-82
2023/02/03 11:26:19;;;;;;;1.85;1.20;;;20.00;71.90;;;;;;5047760;28;20638;-82
2023/02/03 11:28:50;;;;;;;5.05;1.65;;;20.00;71.90;;;;;;5048367;28;20703;-80
2023/02/03 11:31:20;;;;;;;2.92;1.10;;;20.10;72.00;;;;;;5044866;28;20209;-85
2023/02/03 11:33:48;;;;;;;1.75;1.45;;;20.10;72.10;;;;;;5046917;28;20201;-82
2023/02/03 11:36:17;;;;;;;1.50;1.20;;;20.10;72.00;;;;;;5047786;28;20206;-84
2023/02/03 11:38:43;;;;;;;1.85;1.35;;;20.10;72.00;;;;;;5047463;28;20202;-84
2023/02/03 11:41:19;;;;;;;1.65;1.15;;;20.10;72.10;;;;;;5046420;28;20218;-83
2023/02/03 11:43:46;;;;;;;1.77;1.45;;;20.10;72.00;;;;;;5045616;28;20201;-81
2023/02/03 11:46:18;;;;;;;2.03;1.10;;;20.10;72.10;;;;;;5047606;28;20217;-80
2023/02/03 11:49:01;;;;;;;3.13;1.38;;;20.10;72.00;;;;;;5048227;28;20551;-80
2023/02/03 11:51:36;;;;;;;1.95;1.13;;;20.10;72.20;;;;;;5047547;28;20213;-83
2023/02/03 11:54:18;;;;;;;1.65;1.23;;;20.20;72.20;;;;;;5046102;28;20649;-82
2023/02/03 11:57:10;;;;;;;2.22;1.27;;;20.20;72.30;;;;;;5048148;28;20194;-82
2023/02/03 11:59:53;;;;;;;2.80;1.50;;;20.20;72.80;;;;;;5047995;28;20727;-83
2023/02/03 12:02:47;;;;;;;1.40;1.10;;;20.20;72.60;;;;;;5047403;28;20459;-81
2023/02/03 12:05:27;;;;;;;1.42;1.05;;;20.30;72.70;;;;;;5034156;28;20475;-83
2023/02/03 12:08:09;;;;;;;4.07;1.35;;;20.30;72.60;;;;;;5043480;28;20201;-83
2023/02/03 12:10:48;;;;;;;1.40;1.10;;;20.30;72.50;;;;;;5046850;28;20217;-82
2023/02/03 12:13:29;;;;;;;3.27;1.50;;;20.30;72.50;;;;;;5045228;28;20198;-82
2023/02/03 12:16:11;;;;;;;1.58;1.05;;;20.30;72.50;;;;;;5047417;28;20482;-79
2023/02/03 12:18:49;;;;;;;2.67;1.40;;;20.30;72.40;;;;;;5048561;28;20213;-82
2023/02/03 12:21:43;;;;;;;1.92;1.25;;;20.40;72.50;;;;;;5049267;28;20221;-83
2023/02/03 12:24:23;;;;;;;1.87;1.03;;;20.40;72.60;;;;;;5048858;28;20196;-82
2023/02/03 12:26:57;;;;;;;1.20;1.05;;;20.40;72.60;;;;;;5045111;28;20455;-83
2023/02/03 12:29:30;;;;;;;1.60;1.23;;;20.40;72.40;;;;;;5047379;28;20459;-84
2023/02/03 12:32:05;;;;;;;1.30;1.00;;;20.40;72.40;;;;;;5046960;28;20469;-84
2023/02/03 12:34:37;;;;;;;1.53;1.20;;;20.40;72.40;;;;;;5045596;28;20467;-84
2023/02/03 12:37:08;;;;;;;2.10;1.10;;;20.40;72.30;;;;;;5049591;28;20466;-88
2023/02/03 12:39:40;;;;;;;1.60;1.00;;;20.50;72.50;;;;;;5045090;28;20448;-86
2023/02/03 12:42:15;;;;;;;1.70;1.40;;;20.50;72.50;;;;;;5049914;28;20465;-86
2023/02/03 12:44:48;;;;;;;1.67;1.07;;;20.50;72.40;;;;;;5047817;28;20695;-83
2023/02/03 12:47:23;;;;;;;1.93;1.20;;;20.50;72.40;;;;;;5047214;28;20756;-83
2023/02/03 12:49:54;;;;;;;1.57;1.00;;;20.50;72.40;;;;;;5044589;28;21158;-85
2023/02/03 12:52:26;;;;;;;1.90;1.30;;;20.50;72.40;;;;;;5043992;28;20529;-81
2023/02/03 12:55:03;;;;;;;1.67;1.27;;;20.50;72.40;;;;;;5046379;28;20522;-80
2023/02/03 12:57:37;;;;;;;2.10;1.50;;;20.50;72.40;;;;;;5046879;28;20464;-83
2023/02/03 13:00:25;;;;;;;1.80;1.10;;;20.60;72.40;;;;;;5045936;28;20491;-84
2023/02/03 13:03:04;;;;;;;1.20;1.10;;;20.60;72.40;;;;;;5045184;28;20453;-83
2023/02/03 13:05:41;;;;;;;1.83;0.97;;;20.60;72.40;;;;;;5044800;28;20456;-83